createdAt,value
2022-11-26T00:02:03.993Z,65.20
2022-11-26T00:05:11.568Z,71.10
2022-11-26T00:08:18.858Z,68.30
2022-11-26T00:11:26.247Z,65.20
2022-11-26T00:14:33.454Z,72.00
2022-11-26T00:17:40.907Z,69.20
2022-11-26T00:20:48.259Z,63.70
2022-11-26T00:23:55.647Z,79.30
2022-11-26T00:27:03.060Z,65.90
2022-11-26T00:30:10.030Z,81.70
2022-11-26T00:33:17.678Z,72.50
2022-11-26T00:36:24.841Z,80.20
2022-11-26T00:39:31.843Z,72.30
2022-11-26T00:42:39.453Z,69.70
2022-11-26T00:45:47.072Z,72.10
2022-11-26T00:48:53.954Z,67.70
2022-11-26T00:52:01.634Z,72.30
2022-11-26T00:55:08.555Z,70.70
2022-11-26T00:58:16.196Z,68.00
2022-11-26T01:01:23.958Z,69.90
2022-11-26T01:04:30.826Z,66.60
2022-11-26T01:07:38.754Z,61.20
2022-11-26T01:10:46.157Z,65.00
2022-11-26T01:13:53.389Z,75.70
2022-11-26T01:17:00.797Z,62.40
2022-11-26T01:20:08.297Z,75.10
2022-11-26T01:23:15.580Z,68.90
2022-11-26T01:26:22.957Z,74.20
2022-11-26T01:29:30.255Z,76.00
2022-11-26T01:32:37.621Z,86.20
2022-11-26T01:35:45.101Z,102.40
2022-11-26T01:38:52.323Z,83.10
2022-11-26T01:41:59.634Z,80.30
2022-11-26T01:45:06.802Z,81.50
2022-11-26T01:48:14.446Z,86.00
2022-11-26T01:51:22.326Z,75.40
2022-11-26T01:54:29.013Z,75.20
2022-11-26T01:57:36.258Z,73.00
2022-11-26T02:00:42.802Z,82.50
2022-11-26T02:03:50.151Z,92.90
2022-11-26T02:06:57.369Z,84.90
2022-11-26T02:10:03.840Z,86.70
2022-11-26T02:13:10.954Z,85.50
2022-11-26T02:16:18.227Z,82.00
2022-11-26T02:19:24.590Z,91.30
2022-11-26T02:22:31.850Z,80.80
2022-11-26T02:25:38.660Z,84.10
2022-11-26T02:28:45.422Z,77.10
2022-11-26T02:31:52.197Z,84.90
2022-11-26T02:34:59.120Z,75.40
2022-11-26T02:38:05.911Z,82.20
2022-11-26T02:41:12.660Z,71.90
2022-11-26T02:44:19.478Z,76.60
2022-11-26T02:47:26.269Z,72.30
2022-11-26T02:50:33.644Z,73.30
2022-11-26T02:53:40.064Z,71.90
2022-11-26T02:56:46.996Z,64.50
2022-11-26T02:59:53.867Z,67.20
2022-11-26T03:03:00.816Z,64.10
2022-11-26T03:06:08.040Z,60.60
2022-11-26T03:09:14.927Z,58.10
2022-11-26T03:12:21.614Z,66.10
2022-11-26T03:15:28.547Z,58.50
2022-11-26T03:18:35.904Z,52.00
2022-11-26T03:21:42.979Z,55.60
2022-11-26T03:24:49.460Z,60.80
2022-11-26T03:27:56.452Z,55.90
2022-11-26T03:31:03.311Z,52.90
2022-11-26T03:34:10.161Z,47.60
2022-11-26T03:37:17.134Z,52.00
2022-11-26T03:40:23.987Z,44.10
2022-11-26T03:43:30.836Z,60.10
2022-11-26T03:46:37.574Z,46.00
2022-11-26T03:49:44.034Z,54.30
2022-11-26T03:52:51.345Z,53.40
2022-11-26T03:55:58.156Z,52.00
2022-11-26T03:59:05.047Z,59.50
2022-11-26T04:02:12.166Z,64.90
2022-11-26T04:05:18.606Z,51.00
2022-11-26T04:08:25.888Z,50.40
2022-11-26T04:11:33.308Z,59.70
2022-11-26T04:14:40.091Z,55.60
2022-11-26T04:17:47.260Z,54.90
2022-11-26T04:20:54.491Z,54.80
2022-11-26T04:24:00.965Z,59.60
2022-11-26T04:27:08.101Z,53.60
2022-11-26T04:30:14.581Z,56.70
2022-11-26T04:33:21.361Z,58.40
2022-11-26T04:36:28.500Z,63.00
2022-11-26T04:39:34.886Z,60.90
2022-11-26T04:42:42.164Z,56.80
2022-11-26T04:45:49.354Z,52.90
2022-11-26T04:48:55.735Z,61.60
2022-11-26T04:52:02.494Z,66.70
2022-11-26T04:55:09.677Z,71.90
2022-11-26T04:58:16.156Z,65.90
2022-11-26T05:01:23.411Z,67.50
2022-11-26T05:04:30.184Z,63.60
2022-11-26T05:07:37.192Z,59.20
2022-11-26T05:10:44.328Z,56.90
2022-11-26T05:13:51.218Z,54.20
2022-11-26T05:16:58.184Z,49.70
2022-11-26T05:20:05.469Z,54.50
2022-11-26T05:23:12.197Z,46.30
2022-11-26T05:26:18.980Z,45.70
2022-11-26T05:29:25.850Z,50.20
2022-11-26T05:32:32.932Z,46.20
2022-11-26T05:35:39.762Z,52.90
2022-11-26T05:38:46.624Z,51.30
2022-11-26T05:41:53.355Z,50.50
2022-11-26T05:45:00.164Z,49.20
2022-11-26T05:48:06.965Z,64.50
2022-11-26T05:51:13.960Z,48.80
2022-11-26T05:54:20.505Z,69.00
2022-11-26T05:57:27.694Z,60.30
2022-11-26T06:00:34.566Z,52.80
2022-11-26T06:03:41.548Z,58.40
2022-11-26T06:06:48.847Z,61.30
2022-11-26T06:09:55.746Z,56.10
2022-11-26T06:13:02.777Z,62.90
2022-11-26T06:16:10.106Z,58.20
2022-11-26T06:19:16.797Z,69.10
2022-11-26T06:22:23.238Z,60.00
2022-11-26T06:25:30.552Z,80.60
2022-11-26T06:28:37.200Z,66.90
2022-11-26T06:31:44.405Z,67.90
2022-11-26T06:34:54.195Z,67.20
2022-11-26T06:38:00.952Z,61.80
2022-11-26T06:41:08.192Z,85.10
2022-11-26T06:44:15.352Z,71.00
2022-11-26T06:47:21.864Z,70.00
2022-11-26T06:50:28.671Z,66.50
2022-11-26T06:53:35.602Z,62.70
2022-11-26T06:56:42.514Z,75.50
2022-11-26T06:59:49.634Z,57.30
2022-11-26T07:02:56.575Z,55.20
2022-11-26T07:06:03.370Z,62.70
2022-11-26T07:09:10.545Z,59.60
2022-11-26T07:12:17.268Z,74.80
2022-11-26T07:15:24.217Z,58.80
2022-11-26T07:18:30.948Z,65.60
2022-11-26T07:21:37.728Z,64.40
2022-11-26T07:24:44.739Z,57.40
2022-11-26T07:27:51.478Z,65.80
2022-11-26T07:30:58.442Z,58.50
2022-11-26T07:34:05.567Z,59.00
2022-11-26T07:37:12.108Z,63.30
2022-11-26T07:40:18.939Z,62.40
2022-11-26T07:43:25.871Z,54.30
2022-11-26T07:46:33.003Z,60.10
2022-11-26T07:49:39.400Z,64.20
2022-11-26T07:52:46.281Z,63.80
2022-11-26T07:55:53.399Z,61.00
2022-11-26T07:59:00.232Z,67.00
2022-11-26T08:02:07.129Z,65.10
2022-11-26T08:05:14.163Z,63.10
2022-11-26T08:08:20.565Z,72.70
2022-11-26T08:11:27.965Z,61.80
2022-11-26T08:14:34.715Z,61.60
2022-11-26T08:17:41.665Z,53.60
2022-11-26T08:20:48.555Z,62.10
2022-11-26T08:23:55.536Z,55.90
2022-11-26T08:27:02.378Z,53.20
2022-11-26T08:30:09.427Z,56.00
2022-11-26T08:33:15.848Z,56.80
2022-11-26T08:36:22.818Z,50.80
2022-11-26T08:39:30.109Z,59.00
2022-11-26T08:42:36.580Z,62.00
2022-11-26T08:45:43.947Z,62.60
2022-11-26T08:48:50.795Z,62.50
2022-11-26T08:51:57.561Z,51.80
2022-11-26T08:55:04.456Z,63.00
2022-11-26T08:58:11.332Z,51.10
2022-11-26T09:01:18.288Z,52.00
2022-11-26T09:04:25.003Z,50.50
2022-11-26T09:07:31.766Z,48.50
2022-11-26T09:10:38.384Z,47.20
2022-11-26T09:13:44.973Z,54.90
2022-11-26T09:16:52.225Z,54.20
2022-11-26T09:19:59.464Z,58.80
2022-11-26T09:23:06.016Z,52.60
2022-11-26T09:26:13.498Z,44.70
2022-11-26T09:29:20.617Z,55.80
2022-11-26T09:32:33.667Z,49.50
2022-11-26T09:35:30.749Z,52.30
2022-11-26T09:38:37.426Z,48.00
2022-11-26T09:41:44.790Z,43.50
2022-11-26T09:44:52.260Z,46.30
2022-11-26T09:47:59.011Z,54.80
2022-11-26T09:51:06.351Z,46.40
2022-11-26T09:54:13.752Z,51.80
2022-11-26T09:57:20.381Z,49.30
2022-11-26T10:00:27.603Z,45.40
2022-11-26T10:03:34.813Z,48.50
2022-11-26T10:06:41.434Z,38.10
2022-11-26T10:09:48.944Z,37.00
2022-11-26T10:13:18.135Z,40.50
2022-11-26T10:16:00.197Z,41.00
2022-11-26T10:19:07.236Z,44.40
2022-11-26T10:22:14.205Z,34.30
2022-11-26T10:25:21.157Z,37.30
2022-11-26T10:28:28.281Z,44.50
2022-11-26T10:31:35.453Z,41.60
2022-11-26T10:34:42.708Z,35.30
2022-11-26T10:37:50.034Z,30.30
2022-11-26T10:40:57.320Z,42.80
2022-11-26T10:44:04.392Z,35.90
2022-11-26T10:47:11.403Z,45.30
2022-11-26T10:50:46.466Z,32.00
2022-11-26T10:53:22.659Z,36.10
2022-11-26T10:56:30.173Z,33.90
2022-11-26T10:59:37.784Z,31.30
2022-11-26T11:02:44.760Z,36.60
2022-11-26T11:05:51.876Z,35.40
2022-11-26T11:08:58.346Z,35.50
2022-11-26T11:12:05.756Z,32.50
2022-11-26T11:15:12.618Z,28.80
2022-11-26T11:18:19.148Z,35.40
2022-11-26T11:21:25.929Z,28.50
2022-11-26T11:24:32.368Z,33.60
2022-11-26T11:27:39.630Z,30.30
2022-11-26T11:30:46.222Z,26.90
2022-11-26T11:33:53.341Z,32.60
2022-11-26T11:37:00.779Z,30.90
2022-11-26T11:40:10.772Z,31.10
2022-11-26T11:43:09.513Z,35.80
2022-11-26T11:46:17.209Z,28.50
2022-11-26T11:49:25.945Z,28.20
2022-11-26T11:52:33.355Z,25.70
2022-11-26T11:55:40.236Z,25.40
2022-11-26T11:58:47.297Z,23.40
2022-11-26T12:01:54.181Z,31.90
2022-11-26T12:05:01.108Z,26.50
2022-11-26T12:08:08.468Z,28.70
2022-11-26T12:11:15.250Z,24.30
2022-11-26T12:14:22.049Z,25.00
2022-11-26T12:17:33.072Z,22.80
2022-11-26T12:20:29.557Z,23.40
2022-11-26T12:23:36.723Z,23.10
2022-11-26T12:26:43.604Z,26.10
2022-11-26T12:29:50.190Z,25.50
2022-11-26T12:32:57.494Z,24.20
2022-11-26T12:36:04.375Z,23.20
2022-11-26T12:39:11.965Z,26.70
2022-11-26T12:42:19.105Z,25.50
2022-11-26T12:45:25.621Z,26.00
2022-11-26T12:48:32.796Z,25.40
2022-11-26T12:51:39.998Z,25.40
2022-11-26T12:54:46.468Z,27.20
2022-11-26T12:57:53.669Z,31.90
2022-11-26T13:01:00.614Z,28.40
2022-11-26T13:04:37.353Z,21.50
2022-11-26T13:07:11.624Z,24.80
2022-11-26T13:10:18.531Z,26.60
2022-11-26T13:13:25.102Z,30.70
2022-11-26T13:16:32.282Z,25.10
2022-11-26T13:19:39.550Z,25.00
2022-11-26T13:22:46.620Z,25.70
2022-11-26T13:25:53.645Z,24.10
2022-11-26T13:29:00.444Z,20.70
2022-11-26T13:32:12.689Z,22.30
2022-11-26T13:35:09.732Z,22.40
2022-11-26T13:38:16.479Z,19.90
2022-11-26T13:41:23.196Z,24.20
2022-11-26T13:44:30.117Z,28.60
2022-11-26T13:47:37.298Z,20.10
2022-11-26T13:50:44.179Z,20.60
2022-11-26T13:53:51.011Z,22.70
2022-11-26T13:56:58.139Z,25.10
2022-11-26T14:00:04.530Z,21.50
2022-11-26T14:03:11.732Z,20.80
2022-11-26T14:06:19.016Z,21.60
2022-11-26T14:09:25.481Z,23.00
2022-11-26T14:12:32.473Z,23.60
2022-11-26T14:15:39.384Z,27.70
2022-11-26T14:18:46.164Z,20.50
2022-11-26T14:21:53.464Z,21.00
2022-11-26T14:25:00.172Z,22.60
2022-11-26T14:28:06.887Z,24.10
2022-11-26T14:31:13.854Z,26.00
2022-11-26T14:34:20.947Z,26.50
2022-11-26T14:37:27.745Z,27.90
2022-11-26T14:40:34.519Z,27.60
2022-11-26T14:43:42.035Z,26.00
2022-11-26T14:46:48.989Z,23.80
2022-11-26T14:49:55.701Z,25.80
2022-11-26T14:53:02.946Z,28.00
2022-11-26T14:56:09.761Z,24.90
2022-11-26T14:59:16.540Z,27.50
2022-11-26T15:02:23.892Z,26.60
2022-11-26T15:05:30.532Z,23.50
2022-11-26T15:08:37.766Z,28.20
2022-11-26T15:11:44.794Z,32.30
2022-11-26T15:14:51.214Z,23.90
2022-11-26T15:17:58.431Z,23.20
2022-11-26T15:21:05.155Z,21.40
2022-11-26T15:24:12.062Z,28.00
2022-11-26T15:27:19.154Z,33.80
2022-11-26T15:30:25.989Z,32.10
2022-11-26T15:33:32.859Z,32.20
2022-11-26T15:36:39.717Z,32.20
2022-11-26T15:39:47.038Z,39.20
2022-11-26T15:42:53.980Z,30.90
2022-11-26T15:46:00.741Z,27.60
2022-11-26T15:49:07.861Z,32.20
2022-11-26T15:52:14.330Z,35.40
2022-11-26T15:55:21.685Z,37.20
2022-11-26T15:58:29.033Z,23.10
2022-11-26T16:01:35.693Z,41.40
2022-11-26T16:04:43.129Z,35.30
2022-11-26T16:07:50.396Z,44.50
2022-11-26T16:10:56.945Z,35.00
2022-11-26T16:14:04.205Z,37.50
2022-11-26T16:17:11.081Z,42.00
2022-11-26T16:20:17.906Z,42.70
2022-11-26T16:23:25.167Z,36.60
2022-11-26T16:26:32.294Z,35.30
2022-11-26T16:29:38.884Z,33.70
2022-11-26T16:32:45.998Z,42.60
2022-11-26T16:35:52.859Z,47.70
2022-11-26T16:38:59.609Z,46.00
2022-11-26T16:42:06.799Z,46.00
2022-11-26T16:45:13.619Z,45.50
2022-11-26T16:48:20.510Z,45.30
2022-11-26T16:51:27.450Z,53.20
2022-11-26T16:54:34.578Z,57.40
2022-11-26T16:57:41.467Z,43.30
2022-11-26T17:00:48.270Z,56.30
2022-11-26T17:03:55.616Z,45.20
2022-11-26T17:07:02.230Z,47.40
2022-11-26T17:10:09.372Z,41.20
2022-11-26T17:13:16.853Z,47.70
2022-11-26T17:16:23.539Z,52.20
2022-11-26T17:19:30.714Z,61.60
2022-11-26T17:22:37.496Z,46.30
2022-11-26T17:25:44.265Z,57.40
2022-11-26T17:28:51.620Z,80.10
2022-11-26T17:31:58.358Z,65.60
2022-11-26T17:35:05.156Z,73.70
2022-11-26T17:38:12.045Z,62.80
2022-11-26T17:41:19.228Z,56.90
2022-11-26T17:44:26.119Z,53.80
2022-11-26T17:47:33.018Z,55.30
2022-11-26T17:50:40.398Z,54.00
2022-11-26T17:53:47.548Z,61.40
2022-11-26T17:56:54.508Z,61.50
2022-11-26T18:00:02.052Z,56.50
2022-11-26T18:03:08.866Z,67.10
2022-11-26T18:06:16.250Z,55.10
2022-11-26T18:09:23.753Z,56.90
2022-11-26T18:12:30.560Z,57.90
2022-11-26T18:15:37.941Z,67.10
2022-11-26T18:18:45.391Z,66.90
2022-11-26T18:21:52.071Z,60.30
2022-11-26T18:24:59.638Z,65.90
2022-11-26T18:28:07.094Z,79.30
2022-11-26T18:31:14.186Z,85.40
2022-11-26T18:34:21.642Z,80.30
2022-11-26T18:37:28.452Z,74.70
2022-11-26T18:40:35.504Z,77.20
2022-11-26T18:43:42.896Z,67.60
2022-11-26T18:46:49.896Z,85.20
2022-11-26T18:49:56.934Z,80.50
2022-11-26T18:53:03.828Z,77.00
2022-11-26T18:56:10.871Z,77.20
2022-11-26T18:59:17.813Z,67.40
2022-11-26T19:02:24.469Z,71.10
2022-11-26T19:05:31.759Z,76.70
2022-11-26T19:08:41.469Z,69.70
2022-11-26T19:11:48.669Z,72.40
2022-11-26T19:14:57.020Z,75.00
2022-11-26T19:18:04.071Z,75.40
2022-11-26T19:21:11.312Z,67.40
2022-11-26T19:24:18.371Z,64.50
2022-11-26T19:27:24.931Z,68.00
2022-11-26T19:30:32.454Z,63.80
2022-11-26T19:33:39.602Z,59.30
2022-11-26T19:36:46.179Z,60.50
2022-11-26T19:39:53.403Z,58.10
2022-11-26T19:43:00.573Z,54.80
2022-11-26T19:46:07.183Z,64.60
2022-11-26T19:49:14.305Z,58.20
2022-11-26T19:52:21.625Z,67.00
2022-11-26T19:55:28.165Z,68.20
2022-11-26T19:58:35.722Z,63.70
2022-11-26T20:01:42.868Z,54.60
2022-11-26T20:04:49.856Z,58.30
2022-11-26T20:07:56.843Z,68.30
2022-11-26T20:11:03.836Z,66.50
2022-11-26T20:14:10.967Z,64.10
2022-11-26T20:17:18.204Z,64.90
2022-11-26T20:20:25.088Z,62.20
2022-11-26T20:23:32.075Z,60.40
2022-11-26T20:26:38.908Z,62.80
2022-11-26T20:29:46.283Z,67.70
2022-11-26T20:32:52.820Z,62.30
2022-11-26T20:35:59.760Z,59.10
2022-11-26T20:39:07.340Z,57.50
2022-11-26T20:42:14.541Z,58.50
2022-11-26T20:45:21.552Z,60.90
2022-11-26T20:48:28.659Z,58.80
2022-11-26T20:51:35.233Z,58.00
2022-11-26T20:54:42.566Z,56.10
2022-11-26T20:57:49.472Z,61.80
2022-11-26T21:00:56.092Z,56.20
2022-11-26T21:04:03.436Z,55.60
2022-11-26T21:07:10.343Z,52.80
2022-11-26T21:10:17.172Z,54.30
2022-11-26T21:13:24.364Z,57.60
2022-11-26T21:16:30.928Z,57.40
2022-11-26T21:19:38.514Z,68.50
2022-11-26T21:22:45.686Z,61.40
2022-11-26T21:25:52.217Z,54.70
2022-11-26T21:28:59.131Z,60.80
2022-11-26T21:32:06.267Z,60.10
2022-11-26T21:35:12.767Z,62.00
2022-11-26T21:38:25.258Z,63.50
2022-11-26T21:41:23.057Z,52.80
2022-11-26T21:44:29.491Z,63.90
2022-11-26T21:47:36.639Z,62.70
2022-11-26T21:50:43.572Z,61.10
2022-11-26T21:53:50.980Z,56.50
2022-11-26T21:56:58.310Z,59.40
2022-11-26T22:00:04.841Z,58.20
2022-11-26T22:03:12.043Z,61.80
2022-11-26T22:06:18.712Z,54.60
2022-11-26T22:09:25.424Z,51.80
2022-11-26T22:12:32.791Z,54.10
2022-11-26T22:15:39.609Z,58.90
2022-11-26T22:18:46.395Z,50.00
2022-11-26T22:21:53.383Z,55.40
2022-11-26T22:25:00.523Z,51.30
2022-11-26T22:28:07.426Z,46.90
2022-11-26T22:31:14.361Z,53.60
2022-11-26T22:34:21.544Z,56.80
2022-11-26T22:37:28.445Z,54.30
2022-11-26T22:40:35.285Z,59.60
2022-11-26T22:43:42.447Z,55.20
2022-11-26T22:46:48.935Z,58.10
2022-11-26T22:49:56.135Z,72.10
2022-11-26T22:53:02.760Z,83.50
2022-11-26T22:56:09.288Z,61.80
2022-11-26T22:59:16.286Z,54.00
2022-11-26T23:02:22.729Z,64.30
2022-11-26T23:05:29.359Z,57.20
2022-11-26T23:08:36.539Z,67.60
2022-11-26T23:11:43.020Z,65.60
2022-11-26T23:14:49.819Z,71.90
2022-11-26T23:17:56.979Z,57.80
2022-11-26T23:21:03.380Z,60.00
2022-11-26T23:24:10.549Z,57.20
2022-11-26T23:27:17.181Z,58.50
2022-11-26T23:30:23.990Z,56.70
2022-11-26T23:33:31.140Z,56.30
2022-11-26T23:36:37.912Z,59.30
2022-11-26T23:39:44.418Z,52.00
2022-11-26T23:42:51.274Z,54.40
2022-11-26T23:45:58.572Z,60.60
2022-11-26T23:49:05.337Z,56.20
2022-11-26T23:52:12.223Z,63.50
2022-11-26T23:55:19.341Z,61.30
2022-11-26T23:58:26.073Z,60.90
